Date,TemperatureHighF,TemperatureAvgF,TemperatureLowF,DewpointHighF,DewpointAvgF,DewpointLowF,HumidityHigh,HumidityAvg,HumidityLow,PressureMaxIn,PressureMinIn,WindSpeedMaxMPH,WindSpeedAvgMPH,GustSpeedMaxMPH,PrecipitationSumIn
2013-11-1,75.6,54.2,41.3,45.9,40.6,37.2,90,65,30,30.18,30.03,4,0,8,0.00
2013-11-2,73.5,54.7,39.8,45.7,40.4,34.3,86,63,31,30.03,29.88,5,1,8,0.00
2013-11-3,61.4,48.5,37.9,43.1,34.7,30.0,89,62,32,30.00,29.88,5,1,10,0.00
2013-11-4,65.0,48.5,33.9,37.3,30.4,22.0,90,55,25,30.06,29.87,8,2,12,0.00
2013-11-5,67.2,49.6,35.5,35.9,31.2,24.0,77,52,28,30.26,30.05,4,1,7,0.00
2013-11-6,71.6,55.1,40.5,39.4,36.3,33.2,79,52,28,30.28,30.19,4,0,7,0.00
2013-11-7,76.7,57.1,45.0,42.0,36.3,30.2,77,51,19,30.19,30.06,5,0,9,0.00
2013-11-8,74.7,54.4,41.5,40.8,35.5,28.8,77,53,25,30.08,29.96,4,0,7,0.00
2013-11-9,75.6,54.1,41.3,43.7,39.5,35.6,82,62,30,30.04,29.99,3,0,6,0.00
2013-11-10,75.8,55.0,41.7,41.3,37.5,34.5,81,56,26,30.10,30.03,4,1,9,0.00
2013-11-11,74.4,54.2,40.0,39.2,33.3,28.1,72,49,21,30.19,30.08,4,0,8,0.00
2013-11-12,70.3,58.1,46.2,42.8,37.1,31.4,72,47,29,30.26,30.14,4,0,6,0.00
2013-11-13,46.0,44.9,43.7,39.1,37.6,36.6,79,75,72,30.23,30.08,0,0,1,0.00
2013-11-14,69.9,52.6,42.0,46.1,41.1,37.2,88,67,41,30.10,29.82,3,0,7,0.00
2013-11-15,66.1,47.7,37.3,45.2,37.3,32.6,96,71,33,29.82,29.70,4,1,7,0.00
2013-11-16,63.2,46.5,36.1,41.6,36.9,32.6,90,71,42,29.93,29.75,4,1,9,0.00
2013-11-17,64.8,46.6,34.8,46.6,39.7,32.4,94,79,50,30.09,29.93,4,0,6,0.00
2013-11-18,63.5,49.0,37.8,45.9,41.9,36.0,95,78,47,30.15,30.06,4,1,9,0.00
2013-11-19,59.9,52.4,47.0,50.5,47.9,43.9,96,85,69,30.12,29.96,4,0,6,0.45
2013-11-20,54.0,51.9,49.5,53.4,51.2,48.6,98,97,96,29.96,29.83,4,1,9,0.88
2013-11-21,63.2,52.2,41.2,52.6,39.5,26.8,98,68,31,29.99,29.86,10,2,15,0.02
2013-11-22,69.1,54.4,42.0,41.4,22.6,13.8,89,33,13,30.03,29.92,8,2,18,0.00
2013-11-23,63.2,45.3,35.1,44.9,38.1,33.5,97,79,41,30.14,29.99,4,0,6,0.00
2013-11-24,63.1,45.5,35.3,43.9,38.4,32.4,92,78,48,30.27,30.13,4,0,6,0.00
2013-11-25,64.4,46.6,35.7,44.3,39.0,33.1,93,77,47,30.34,30.26,3,0,6,0.00
2013-11-26,62.9,46.6,36.9,46.0,40.7,35.3,95,82,53,30.29,30.07,3,0,5,0.00
2013-11-27,70.7,49.0,38.3,45.5,40.3,35.8,94,75,34,30.07,29.88,2,0,6,0.00
2013-11-28,69.2,51.7,42.0,42.6,38.6,35.4,86,64,34,30.08,29.89,4,0,6,0.00
2013-11-29,68.2,51.2,40.5,42.6,38.6,35.1,87,65,35,30.23,30.08,4,1,8,0.00
2013-11-30,66.8,48.7,39.2,43.5,39.0,35.5,90,72,41,30.27,30.19,3,0,8,0.00